sensor_id;sensor_type;location;lat;lon;timestamp;P1;durP1;ratioP1;P2;durP2;ratioP2
27722;SDS011;15123;-37.794;175.246;2023-06-10T00:00:18;4.07;;;0.95;;
27722;SDS011;15123;-37.794;175.246;2023-06-10T00:03:44;3.80;;;1.20;;
27722;SDS011;15123;-37.794;175.246;2023-06-10T00:07:09;4.88;;;1.15;;
27722;SDS011;15123;-37.794;175.246;2023-06-10T00:10:32;5.65;;;1.10;;
27722;SDS011;15123;-37.794;175.246;2023-06-10T00:13:56;5.70;;;1.23;;
27722;SDS011;15123;-37.794;175.246;2023-06-10T00:17:21;3.13;;;0.73;;
27722;SDS011;15123;-37.794;175.246;2023-06-10T00:20:44;6.10;;;1.40;;
27722;SDS011;15123;-37.794;175.246;2023-06-10T00:24:11;7.20;;;1.75;;
27722;SDS011;15123;-37.794;175.246;2023-06-10T00:27:34;4.90;;;1.17;;
27722;SDS011;15123;-37.794;175.246;2023-06-10T00:30:58;4.93;;;1.50;;
27722;SDS011;15123;-37.794;175.246;2023-06-10T00:34:21;4.07;;;1.00;;
27722;SDS011;15123;-37.794;175.246;2023-06-10T00:37:46;4.35;;;1.20;;
27722;SDS011;15123;-37.794;175.246;2023-06-10T00:41:09;2.92;;;0.80;;
27722;SDS011;15123;-37.794;175.246;2023-06-10T00:44:33;3.65;;;0.95;;
27722;SDS011;15123;-37.794;175.246;2023-06-10T00:47:57;4.75;;;0.90;;
27722;SDS011;15123;-37.794;175.246;2023-06-10T00:51:23;6.75;;;2.38;;
27722;SDS011;15123;-37.794;175.246;2023-06-10T00:54:47;5.45;;;1.38;;
27722;SDS011;15123;-37.794;175.246;2023-06-10T00:58:12;5.80;;;1.13;;
27722;SDS011;15123;-37.794;175.246;2023-06-10T01:01:35;6.18;;;1.40;;
27722;SDS011;15123;-37.794;175.246;2023-06-10T01:04:59;3.40;;;0.90;;
27722;SDS011;15123;-37.794;175.246;2023-06-10T01:15:34;4.20;;;1.13;;
27722;SDS011;15123;-37.794;175.246;2023-06-10T01:18:58;4.10;;;1.30;;
27722;SDS011;15123;-37.794;175.246;2023-06-10T01:22:23;3.80;;;1.23;;
27722;SDS011;15123;-37.794;175.246;2023-06-10T01:25:47;5.78;;;1.50;;
27722;SDS011;15123;-37.794;175.246;2023-06-10T01:29:33;4.47;;;1.38;;
27722;SDS011;15123;-37.794;175.246;2023-06-10T01:32:58;6.03;;;1.90;;
27722;SDS011;15123;-37.794;175.246;2023-06-10T01:36:23;3.67;;;0.90;;
27722;SDS011;15123;-37.794;175.246;2023-06-10T01:39:47;5.38;;;1.70;;
27722;SDS011;15123;-37.794;175.246;2023-06-10T01:43:10;5.07;;;1.70;;
27722;SDS011;15123;-37.794;175.246;2023-06-10T01:46:34;5.63;;;1.50;;
27722;SDS011;15123;-37.794;175.246;2023-06-10T01:49:58;4.75;;;1.30;;
27722;SDS011;15123;-37.794;175.246;2023-06-10T01:53:21;5.07;;;1.27;;
27722;SDS011;15123;-37.794;175.246;2023-06-10T01:56:44;7.40;;;2.05;;
27722;SDS011;15123;-37.794;175.246;2023-06-10T02:00:07;8.32;;;2.20;;
27722;SDS011;15123;-37.794;175.246;2023-06-10T02:03:31;4.25;;;1.30;;
27722;SDS011;15123;-37.794;175.246;2023-06-10T02:06:56;3.42;;;1.20;;
27722;SDS011;15123;-37.794;175.246;2023-06-10T02:10:22;5.57;;;1.98;;
27722;SDS011;15123;-37.794;175.246;2023-06-10T02:13:45;5.18;;;1.58;;
27722;SDS011;15123;-37.794;175.246;2023-06-10T02:17:09;7.68;;;1.90;;
27722;SDS011;15123;-37.794;175.246;2023-06-10T02:20:52;6.30;;;1.23;;
27722;SDS011;15123;-37.794;175.246;2023-06-10T02:24:15;3.53;;;0.98;;
27722;SDS011;15123;-37.794;175.246;2023-06-10T02:27:33;7.18;;;2.08;;
27722;SDS011;15123;-37.794;175.246;2023-06-10T02:30:52;4.63;;;1.27;;
27722;SDS011;15123;-37.794;175.246;2023-06-10T02:34:16;4.63;;;1.38;;
27722;SDS011;15123;-37.794;175.246;2023-06-10T02:37:40;4.15;;;1.08;;
27722;SDS011;15123;-37.794;175.246;2023-06-10T02:41:05;4.40;;;1.10;;
27722;SDS011;15123;-37.794;175.246;2023-06-10T02:44:28;4.95;;;1.27;;
27722;SDS011;15123;-37.794;175.246;2023-06-10T02:48:05;4.82;;;0.95;;
27722;SDS011;15123;-37.794;175.246;2023-06-10T02:51:29;3.88;;;1.02;;
27722;SDS011;15123;-37.794;175.246;2023-06-10T02:54:54;3.38;;;0.80;;
27722;SDS011;15123;-37.794;175.246;2023-06-10T02:58:24;7.18;;;2.17;;
27722;SDS011;15123;-37.794;175.246;2023-06-10T03:01:50;9.07;;;2.92;;
27722;SDS011;15123;-37.794;175.246;2023-06-10T03:05:22;3.85;;;1.00;;
27722;SDS011;15123;-37.794;175.246;2023-06-10T03:08:47;5.57;;;1.60;;
27722;SDS011;15123;-37.794;175.246;2023-06-10T03:12:13;4.10;;;1.13;;
27722;SDS011;15123;-37.794;175.246;2023-06-10T03:15:36;3.38;;;0.80;;
27722;SDS011;15123;-37.794;175.246;2023-06-10T03:19:02;3.35;;;0.80;;
27722;SDS011;15123;-37.794;175.246;2023-06-10T03:22:27;4.47;;;1.13;;
27722;SDS011;15123;-37.794;175.246;2023-06-10T03:25:50;3.95;;;0.95;;
27722;SDS011;15123;-37.794;175.246;2023-06-10T03:29:17;5.32;;;1.33;;
27722;SDS011;15123;-37.794;175.246;2023-06-10T03:32:42;3.38;;;0.90;;
27722;SDS011;15123;-37.794;175.246;2023-06-10T03:36:07;5.07;;;1.60;;
27722;SDS011;15123;-37.794;175.246;2023-06-10T03:39:32;6.47;;;1.60;;
27722;SDS011;15123;-37.794;175.246;2023-06-10T03:42:56;5.20;;;1.00;;
27722;SDS011;15123;-37.794;175.246;2023-06-10T03:46:20;3.05;;;0.70;;
27722;SDS011;15123;-37.794;175.246;2023-06-10T03:49:45;4.75;;;1.10;;
27722;SDS011;15123;-37.794;175.246;2023-06-10T03:53:09;2.28;;;0.77;;
27722;SDS011;15123;-37.794;175.246;2023-06-10T03:56:32;4.97;;;0.90;;
27722;SDS011;15123;-37.794;175.246;2023-06-10T03:59:56;4.38;;;1.17;;
27722;SDS011;15123;-37.794;175.246;2023-06-10T04:03:28;8.98;;;7.28;;
27722;SDS011;15123;-37.794;175.246;2023-06-10T04:06:53;5.38;;;4.32;;
27722;SDS011;15123;-37.794;175.246;2023-06-10T04:10:16;11.75;;;10.55;;
27722;SDS011;15123;-37.794;175.246;2023-06-10T04:13:41;3.50;;;0.95;;
27722;SDS011;15123;-37.794;175.246;2023-06-10T04:17:05;4.65;;;2.00;;
27722;SDS011;15123;-37.794;175.246;2023-06-10T04:20:29;6.57;;;3.10;;
27722;SDS011;15123;-37.794;175.246;2023-06-10T04:23:53;3.28;;;1.30;;
27722;SDS011;15123;-37.794;175.246;2023-06-10T04:27:18;3.30;;;0.90;;
27722;SDS011;15123;-37.794;175.246;2023-06-10T04:30:38;3.92;;;1.10;;
27722;SDS011;15123;-37.794;175.246;2023-06-10T04:33:56;3.90;;;0.80;;
27722;SDS011;15123;-37.794;175.246;2023-06-10T04:37:20;4.53;;;1.10;;
27722;SDS011;15123;-37.794;175.246;2023-06-10T04:40:45;4.95;;;1.90;;
27722;SDS011;15123;-37.794;175.246;2023-06-10T04:44:10;4.55;;;1.40;;
27722;SDS011;15123;-37.794;175.246;2023-06-10T04:47:34;3.80;;;0.98;;
27722;SDS011;15123;-37.794;175.246;2023-06-10T04:51:00;5.32;;;1.35;;
27722;SDS011;15123;-37.794;175.246;2023-06-10T04:54:24;6.55;;;2.38;;
27722;SDS011;15123;-37.794;175.246;2023-06-10T04:57:49;33.55;;;14.98;;
27722;SDS011;15123;-37.794;175.246;2023-06-10T05:01:13;15.85;;;6.80;;
27722;SDS011;15123;-37.794;175.246;2023-06-10T05:04:38;10.00;;;5.50;;
27722;SDS011;15123;-37.794;175.246;2023-06-10T05:08:01;9.35;;;6.15;;
27722;SDS011;15123;-37.794;175.246;2023-06-10T05:11:25;12.52;;;8.35;;
27722;SDS011;15123;-37.794;175.246;2023-06-10T05:14:49;12.88;;;8.77;;
27722;SDS011;15123;-37.794;175.246;2023-06-10T05:18:13;12.05;;;6.20;;
27722;SDS011;15123;-37.794;175.246;2023-06-10T05:21:36;18.50;;;9.35;;
27722;SDS011;15123;-37.794;175.246;2023-06-10T05:25:01;38.10;;;16.05;;
27722;SDS011;15123;-37.794;175.246;2023-06-10T05:28:25;20.30;;;10.10;;
27722;SDS011;15123;-37.794;175.246;2023-06-10T05:31:49;14.32;;;8.60;;
27722;SDS011;15123;-37.794;175.246;2023-06-10T05:35:15;17.48;;;10.45;;
27722;SDS011;15123;-37.794;175.246;2023-06-10T05:38:39;12.02;;;7.00;;
27722;SDS011;15123;-37.794;175.246;2023-06-10T05:42:03;11.30;;;6.60;;
27722;SDS011;15123;-37.794;175.246;2023-06-10T05:45:28;12.55;;;8.45;;
27722;SDS011;15123;-37.794;175.246;2023-06-10T05:48:52;25.08;;;16.63;;
27722;SDS011;15123;-37.794;175.246;2023-06-10T05:52:17;20.63;;;14.60;;
27722;SDS011;15123;-37.794;175.246;2023-06-10T05:55:42;26.83;;;17.13;;
27722;SDS011;15123;-37.794;175.246;2023-06-10T05:59:08;27.63;;;16.48;;
27722;SDS011;15123;-37.794;175.246;2023-06-10T06:02:32;37.47;;;22.33;;
27722;SDS011;15123;-37.794;175.246;2023-06-10T06:05:57;35.95;;;21.58;;
27722;SDS011;15123;-37.794;175.246;2023-06-10T06:09:20;46.65;;;23.48;;
27722;SDS011;15123;-37.794;175.246;2023-06-10T06:12:43;55.55;;;26.63;;
27722;SDS011;15123;-37.794;175.246;2023-06-10T06:16:06;58.08;;;27.55;;
27722;SDS011;15123;-37.794;175.246;2023-06-10T06:19:30;64.00;;;27.60;;
27722;SDS011;15123;-37.794;175.246;2023-06-10T06:22:56;68.30;;;32.75;;
27722;SDS011;15123;-37.794;175.246;2023-06-10T06:26:19;64.47;;;31.38;;
27722;SDS011;15123;-37.794;175.246;2023-06-10T06:29:43;61.55;;;30.45;;
27722;SDS011;15123;-37.794;175.246;2023-06-10T06:33:08;72.00;;;32.78;;
27722;SDS011;15123;-37.794;175.246;2023-06-10T06:36:31;57.47;;;29.30;;
27722;SDS011;15123;-37.794;175.246;2023-06-10T06:39:55;54.38;;;27.35;;
27722;SDS011;15123;-37.794;175.246;2023-06-10T06:43:21;58.67;;;28.88;;
27722;SDS011;15123;-37.794;175.246;2023-06-10T06:47:05;90.03;;;41.85;;
27722;SDS011;15123;-37.794;175.246;2023-06-10T06:50:28;72.10;;;32.78;;
27722;SDS011;15123;-37.794;175.246;2023-06-10T06:53:52;64.53;;;31.02;;
27722;SDS011;15123;-37.794;175.246;2023-06-10T06:57:15;100.53;;;38.40;;
27722;SDS011;15123;-37.794;175.246;2023-06-10T07:00:39;54.40;;;23.60;;
27722;SDS011;15123;-37.794;175.246;2023-06-10T07:04:02;43.10;;;20.70;;
27722;SDS011;15123;-37.794;175.246;2023-06-10T07:07:25;33.60;;;16.70;;
27722;SDS011;15123;-37.794;175.246;2023-06-10T07:10:48;30.88;;;14.60;;
27722;SDS011;15123;-37.794;175.246;2023-06-10T07:14:12;26.35;;;13.95;;
27722;SDS011;15123;-37.794;175.246;2023-06-10T07:17:36;25.98;;;13.30;;
27722;SDS011;15123;-37.794;175.246;2023-06-10T07:21:00;30.00;;;14.20;;
27722;SDS011;15123;-37.794;175.246;2023-06-10T07:24:23;30.92;;;14.98;;
27722;SDS011;15123;-37.794;175.246;2023-06-10T07:27:46;26.40;;;13.95;;
27722;SDS011;15123;-37.794;175.246;2023-06-10T07:31:09;26.05;;;14.00;;
27722;SDS011;15123;-37.794;175.246;2023-06-10T07:34:27;26.88;;;14.05;;
27722;SDS011;15123;-37.794;175.246;2023-06-10T07:37:44;26.80;;;12.40;;
27722;SDS011;15123;-37.794;175.246;2023-06-10T07:41:08;25.08;;;12.77;;
27722;SDS011;15123;-37.794;175.246;2023-06-10T07:44:32;19.65;;;10.73;;
27722;SDS011;15123;-37.794;175.246;2023-06-10T07:47:56;12.10;;;5.60;;
27722;SDS011;15123;-37.794;175.246;2023-06-10T07:51:20;8.40;;;3.80;;
27722;SDS011;15123;-37.794;175.246;2023-06-10T07:54:43;7.97;;;2.90;;
27722;SDS011;15123;-37.794;175.246;2023-06-10T07:58:06;7.38;;;2.30;;
27722;SDS011;15123;-37.794;175.246;2023-06-10T08:01:30;7.65;;;3.25;;
27722;SDS011;15123;-37.794;175.246;2023-06-10T08:04:54;19.42;;;10.63;;
27722;SDS011;15123;-37.794;175.246;2023-06-10T08:08:18;28.23;;;14.95;;
27722;SDS011;15123;-37.794;175.246;2023-06-10T08:11:41;35.80;;;18.63;;
27722;SDS011;15123;-37.794;175.246;2023-06-10T08:15:06;28.75;;;15.05;;
27722;SDS011;15123;-37.794;175.246;2023-06-10T08:18:29;21.70;;;12.68;;
27722;SDS011;15123;-37.794;175.246;2023-06-10T08:21:53;19.92;;;11.75;;
27722;SDS011;15123;-37.794;175.246;2023-06-10T08:25:17;15.85;;;7.35;;
27722;SDS011;15123;-37.794;175.246;2023-06-10T08:28:40;10.38;;;5.60;;
27722;SDS011;15123;-37.794;175.246;2023-06-10T08:32:04;12.50;;;6.18;;
27722;SDS011;15123;-37.794;175.246;2023-06-10T08:35:22;15.88;;;8.77;;
27722;SDS011;15123;-37.794;175.246;2023-06-10T08:38:40;18.23;;;9.20;;
27722;SDS011;15123;-37.794;175.246;2023-06-10T08:45:43;17.30;;;8.73;;
27722;SDS011;15123;-37.794;175.246;2023-06-10T08:49:08;20.77;;;11.48;;
27722;SDS011;15123;-37.794;175.246;2023-06-10T08:52:35;19.33;;;10.93;;
27722;SDS011;15123;-37.794;175.246;2023-06-10T08:55:58;19.15;;;11.25;;
27722;SDS011;15123;-37.794;175.246;2023-06-10T08:59:24;19.10;;;10.45;;
27722;SDS011;15123;-37.794;175.246;2023-06-10T09:02:48;20.08;;;10.23;;
27722;SDS011;15123;-37.794;175.246;2023-06-10T09:06:13;22.27;;;10.95;;
27722;SDS011;15123;-37.794;175.246;2023-06-10T09:09:36;28.50;;;13.15;;
27722;SDS011;15123;-37.794;175.246;2023-06-10T09:12:59;32.45;;;13.05;;
27722;SDS011;15123;-37.794;175.246;2023-06-10T09:16:23;27.50;;;12.70;;
27722;SDS011;15123;-37.794;175.246;2023-06-10T09:19:47;33.45;;;14.70;;
27722;SDS011;15123;-37.794;175.246;2023-06-10T09:23:15;28.90;;;14.82;;
27722;SDS011;15123;-37.794;175.246;2023-06-10T09:26:39;16.42;;;9.02;;
27722;SDS011;15123;-37.794;175.246;2023-06-10T09:30:03;16.23;;;8.82;;
27722;SDS011;15123;-37.794;175.246;2023-06-10T09:33:28;18.77;;;10.85;;
27722;SDS011;15123;-37.794;175.246;2023-06-10T09:36:46;20.10;;;11.55;;
27722;SDS011;15123;-37.794;175.246;2023-06-10T09:40:04;19.30;;;10.35;;
27722;SDS011;15123;-37.794;175.246;2023-06-10T09:43:40;16.73;;;10.25;;
27722;SDS011;15123;-37.794;175.246;2023-06-10T09:47:07;17.40;;;10.60;;
27722;SDS011;15123;-37.794;175.246;2023-06-10T09:50:33;18.77;;;10.68;;
27722;SDS011;15123;-37.794;175.246;2023-06-10T09:53:56;18.48;;;10.93;;
27722;SDS011;15123;-37.794;175.246;2023-06-10T09:57:20;20.45;;;10.30;;
27722;SDS011;15123;-37.794;175.246;2023-06-10T10:00:44;27.35;;;12.10;;
27722;SDS011;15123;-37.794;175.246;2023-06-10T10:04:14;23.02;;;11.23;;
27722;SDS011;15123;-37.794;175.246;2023-06-10T10:07:47;17.77;;;8.87;;
27722;SDS011;15123;-37.794;175.246;2023-06-10T10:11:11;18.42;;;10.40;;
27722;SDS011;15123;-37.794;175.246;2023-06-10T10:14:36;17.10;;;8.80;;
27722;SDS011;15123;-37.794;175.246;2023-06-10T10:18:13;13.40;;;6.70;;
27722;SDS011;15123;-37.794;175.246;2023-06-10T10:21:45;13.57;;;7.30;;
27722;SDS011;15123;-37.794;175.246;2023-06-10T10:25:16;9.88;;;5.22;;
27722;SDS011;15123;-37.794;175.246;2023-06-10T10:29:30;10.70;;;5.57;;
27722;SDS011;15123;-37.794;175.246;2023-06-10T10:33:16;11.43;;;6.25;;
27722;SDS011;15123;-37.794;175.246;2023-06-10T10:36:21;12.80;;;6.90;;
27722;SDS011;15123;-37.794;175.246;2023-06-10T10:39:39;12.35;;;6.13;;
27722;SDS011;15123;-37.794;175.246;2023-06-10T10:42:56;12.00;;;6.30;;
27722;SDS011;15123;-37.794;175.246;2023-06-10T10:46:21;12.00;;;7.00;;
27722;SDS011;15123;-37.794;175.246;2023-06-10T10:49:47;17.08;;;8.02;;
27722;SDS011;15123;-37.794;175.246;2023-06-10T10:53:14;21.45;;;8.70;;
27722;SDS011;15123;-37.794;175.246;2023-06-10T11:00:37;24.48;;;10.30;;
27722;SDS011;15123;-37.794;175.246;2023-06-10T11:04:06;28.92;;;12.18;;
27722;SDS011;15123;-37.794;175.246;2023-06-10T11:07:31;26.10;;;11.43;;
27722;SDS011;15123;-37.794;175.246;2023-06-10T11:10:54;21.73;;;10.48;;
27722;SDS011;15123;-37.794;175.246;2023-06-10T11:14:28;22.60;;;10.07;;
27722;SDS011;15123;-37.794;175.246;2023-06-10T11:25:28;20.88;;;9.95;;
27722;SDS011;15123;-37.794;175.246;2023-06-10T11:29:06;22.52;;;10.13;;
27722;SDS011;15123;-37.794;175.246;2023-06-10T11:32:31;19.45;;;9.23;;
27722;SDS011;15123;-37.794;175.246;2023-06-10T11:35:56;20.35;;;9.50;;
27722;SDS011;15123;-37.794;175.246;2023-06-10T11:39:19;23.30;;;11.02;;
27722;SDS011;15123;-37.794;175.246;2023-06-10T11:42:44;23.02;;;10.15;;
27722;SDS011;15123;-37.794;175.246;2023-06-10T11:46:07;25.45;;;11.45;;
27722;SDS011;15123;-37.794;175.246;2023-06-10T11:49:31;24.30;;;12.27;;
27722;SDS011;15123;-37.794;175.246;2023-06-10T11:52:58;27.65;;;12.73;;
27722;SDS011;15123;-37.794;175.246;2023-06-10T11:56:22;35.03;;;15.00;;
27722;SDS011;15123;-37.794;175.246;2023-06-10T11:59:46;32.90;;;13.80;;
27722;SDS011;15123;-37.794;175.246;2023-06-10T12:03:15;28.73;;;12.80;;
27722;SDS011;15123;-37.794;175.246;2023-06-10T12:06:38;31.17;;;12.75;;
27722;SDS011;15123;-37.794;175.246;2023-06-10T12:10:03;25.63;;;11.07;;
27722;SDS011;15123;-37.794;175.246;2023-06-10T12:13:34;24.60;;;11.13;;
27722;SDS011;15123;-37.794;175.246;2023-06-10T12:16:59;20.98;;;10.02;;
27722;SDS011;15123;-37.794;175.246;2023-06-10T12:20:25;21.73;;;8.93;;
27722;SDS011;15123;-37.794;175.246;2023-06-10T12:24:02;22.63;;;9.50;;
27722;SDS011;15123;-37.794;175.246;2023-06-10T12:27:26;17.83;;;8.40;;
27722;SDS011;15123;-37.794;175.246;2023-06-10T12:30:51;17.65;;;7.57;;
27722;SDS011;15123;-37.794;175.246;2023-06-10T12:34:32;20.25;;;8.45;;
27722;SDS011;15123;-37.794;175.246;2023-06-10T12:38:01;18.52;;;8.02;;
27722;SDS011;15123;-37.794;175.246;2023-06-10T12:41:28;25.35;;;10.88;;
27722;SDS011;15123;-37.794;175.246;2023-06-10T12:44:54;24.13;;;11.40;;
27722;SDS011;15123;-37.794;175.246;2023-06-10T12:48:22;23.20;;;11.07;;
27722;SDS011;15123;-37.794;175.246;2023-06-10T12:51:46;21.80;;;9.02;;
27722;SDS011;15123;-37.794;175.246;2023-06-10T12:55:10;17.42;;;8.20;;
27722;SDS011;15123;-37.794;175.246;2023-06-10T12:58:33;17.67;;;7.25;;
27722;SDS011;15123;-37.794;175.246;2023-06-10T13:01:57;17.90;;;7.43;;
27722;SDS011;15123;-37.794;175.246;2023-06-10T13:05:22;16.50;;;7.15;;
27722;SDS011;15123;-37.794;175.246;2023-06-10T13:08:46;17.63;;;7.60;;
27722;SDS011;15123;-37.794;175.246;2023-06-10T13:12:10;17.17;;;7.97;;
27722;SDS011;15123;-37.794;175.246;2023-06-10T13:15:54;24.05;;;9.93;;
27722;SDS011;15123;-37.794;175.246;2023-06-10T13:19:18;13.90;;;6.50;;
27722;SDS011;15123;-37.794;175.246;2023-06-10T13:22:41;15.38;;;6.10;;
27722;SDS011;15123;-37.794;175.246;2023-06-10T13:26:04;16.45;;;6.57;;
27722;SDS011;15123;-37.794;175.246;2023-06-10T13:29:27;16.40;;;6.28;;
27722;SDS011;15123;-37.794;175.246;2023-06-10T13:32:50;13.88;;;5.35;;
27722;SDS011;15123;-37.794;175.246;2023-06-10T13:36:13;17.00;;;7.30;;
27722;SDS011;15123;-37.794;175.246;2023-06-10T13:39:38;15.52;;;6.95;;
27722;SDS011;15123;-37.794;175.246;2023-06-10T13:43:05;15.55;;;6.60;;
27722;SDS011;15123;-37.794;175.246;2023-06-10T13:46:29;14.05;;;6.15;;
27722;SDS011;15123;-37.794;175.246;2023-06-10T13:49:57;17.15;;;6.32;;
27722;SDS011;15123;-37.794;175.246;2023-06-10T13:53:20;17.27;;;6.45;;
27722;SDS011;15123;-37.794;175.246;2023-06-10T13:56:44;16.02;;;5.60;;
27722;SDS011;15123;-37.794;175.246;2023-06-10T14:00:09;10.88;;;5.00;;
27722;SDS011;15123;-37.794;175.246;2023-06-10T14:03:33;9.63;;;4.43;;
27722;SDS011;15123;-37.794;175.246;2023-06-10T14:06:58;11.50;;;4.65;;
27722;SDS011;15123;-37.794;175.246;2023-06-10T14:10:22;8.80;;;3.80;;
27722;SDS011;15123;-37.794;175.246;2023-06-10T14:13:45;10.95;;;4.50;;
27722;SDS011;15123;-37.794;175.246;2023-06-10T14:17:11;8.82;;;3.60;;
27722;SDS011;15123;-37.794;175.246;2023-06-10T14:20:34;10.25;;;4.18;;
27722;SDS011;15123;-37.794;175.246;2023-06-10T14:23:58;9.05;;;3.88;;
27722;SDS011;15123;-37.794;175.246;2023-06-10T14:27:22;11.02;;;4.20;;
27722;SDS011;15123;-37.794;175.246;2023-06-10T14:30:45;9.98;;;4.18;;
27722;SDS011;15123;-37.794;175.246;2023-06-10T14:34:08;11.52;;;4.97;;
27722;SDS011;15123;-37.794;175.246;2023-06-10T14:37:33;9.27;;;4.10;;
27722;SDS011;15123;-37.794;175.246;2023-06-10T14:40:56;11.20;;;4.45;;
27722;SDS011;15123;-37.794;175.246;2023-06-10T14:44:19;12.35;;;5.03;;
27722;SDS011;15123;-37.794;175.246;2023-06-10T14:47:43;10.05;;;4.40;;
27722;SDS011;15123;-37.794;175.246;2023-06-10T14:51:16;11.50;;;5.05;;
27722;SDS011;15123;-37.794;175.246;2023-06-10T14:54:43;12.73;;;5.22;;
27722;SDS011;15123;-37.794;175.246;2023-06-10T14:58:07;12.68;;;5.35;;
27722;SDS011;15123;-37.794;175.246;2023-06-10T15:01:31;14.63;;;5.90;;
27722;SDS011;15123;-37.794;175.246;2023-06-10T15:04:55;14.95;;;6.63;;
27722;SDS011;15123;-37.794;175.246;2023-06-10T15:08:19;13.77;;;5.47;;
27722;SDS011;15123;-37.794;175.246;2023-06-10T15:11:45;13.68;;;5.53;;
27722;SDS011;15123;-37.794;175.246;2023-06-10T15:15:08;11.82;;;6.22;;
27722;SDS011;15123;-37.794;175.246;2023-06-10T15:18:32;10.57;;;5.50;;
27722;SDS011;15123;-37.794;175.246;2023-06-10T15:21:54;9.50;;;5.60;;
27722;SDS011;15123;-37.794;175.246;2023-06-10T15:25:17;10.48;;;5.20;;
27722;SDS011;15123;-37.794;175.246;2023-06-10T15:28:44;10.25;;;4.95;;
27722;SDS011;15123;-37.794;175.246;2023-06-10T15:32:07;9.38;;;3.67;;
27722;SDS011;15123;-37.794;175.246;2023-06-10T15:35:32;10.55;;;4.78;;
27722;SDS011;15123;-37.794;175.246;2023-06-10T15:39:01;14.70;;;6.68;;
27722;SDS011;15123;-37.794;175.246;2023-06-10T15:42:25;16.05;;;6.88;;
27722;SDS011;15123;-37.794;175.246;2023-06-10T15:45:48;17.27;;;7.93;;
27722;SDS011;15123;-37.794;175.246;2023-06-10T15:49:06;14.02;;;6.40;;
27722;SDS011;15123;-37.794;175.246;2023-06-10T15:52:23;15.07;;;6.57;;
27722;SDS011;15123;-37.794;175.246;2023-06-10T15:55:47;16.05;;;7.10;;
27722;SDS011;15123;-37.794;175.246;2023-06-10T15:59:10;14.15;;;6.13;;
27722;SDS011;15123;-37.794;175.246;2023-06-10T16:02:34;9.45;;;4.15;;
27722;SDS011;15123;-37.794;175.246;2023-06-10T16:05:58;7.35;;;3.00;;
27722;SDS011;15123;-37.794;175.246;2023-06-10T16:09:21;9.10;;;3.72;;
27722;SDS011;15123;-37.794;175.246;2023-06-10T16:12:46;10.57;;;4.25;;
27722;SDS011;15123;-37.794;175.246;2023-06-10T16:16:09;5.43;;;2.33;;
27722;SDS011;15123;-37.794;175.246;2023-06-10T16:19:32;8.13;;;3.15;;
27722;SDS011;15123;-37.794;175.246;2023-06-10T16:22:56;7.97;;;2.90;;
27722;SDS011;15123;-37.794;175.246;2023-06-10T16:26:20;6.55;;;2.70;;
27722;SDS011;15123;-37.794;175.246;2023-06-10T16:29:44;8.15;;;3.22;;
27722;SDS011;15123;-37.794;175.246;2023-06-10T16:33:07;8.43;;;3.50;;
27722;SDS011;15123;-37.794;175.246;2023-06-10T16:36:32;7.85;;;2.95;;
27722;SDS011;15123;-37.794;175.246;2023-06-10T16:39:55;6.68;;;2.72;;
27722;SDS011;15123;-37.794;175.246;2023-06-10T16:43:19;7.10;;;2.67;;
27722;SDS011;15123;-37.794;175.246;2023-06-10T16:46:43;5.85;;;2.53;;
27722;SDS011;15123;-37.794;175.246;2023-06-10T16:50:01;7.50;;;2.55;;
27722;SDS011;15123;-37.794;175.246;2023-06-10T16:53:25;7.82;;;2.70;;
27722;SDS011;15123;-37.794;175.246;2023-06-10T16:56:50;11.52;;;3.92;;
27722;SDS011;15123;-37.794;175.246;2023-06-10T17:00:15;7.63;;;2.72;;
27722;SDS011;15123;-37.794;175.246;2023-06-10T17:03:38;6.97;;;2.58;;
27722;SDS011;15123;-37.794;175.246;2023-06-10T17:07:01;6.97;;;2.40;;
27722;SDS011;15123;-37.794;175.246;2023-06-10T17:10:24;7.93;;;2.80;;
27722;SDS011;15123;-37.794;175.246;2023-06-10T17:13:48;7.13;;;2.90;;
27722;SDS011;15123;-37.794;175.246;2023-06-10T17:17:12;7.25;;;3.10;;
27722;SDS011;15123;-37.794;175.246;2023-06-10T17:20:35;8.27;;;2.92;;
27722;SDS011;15123;-37.794;175.246;2023-06-10T17:23:58;8.35;;;3.20;;
27722;SDS011;15123;-37.794;175.246;2023-06-10T17:27:22;8.63;;;3.35;;
27722;SDS011;15123;-37.794;175.246;2023-06-10T17:30:45;8.82;;;3.53;;
27722;SDS011;15123;-37.794;175.246;2023-06-10T17:34:08;6.95;;;2.88;;
27722;SDS011;15123;-37.794;175.246;2023-06-10T17:37:31;8.93;;;3.50;;
27722;SDS011;15123;-37.794;175.246;2023-06-10T17:40:54;8.15;;;3.28;;
27722;SDS011;15123;-37.794;175.246;2023-06-10T17:44:21;9.50;;;3.15;;
27722;SDS011;15123;-37.794;175.246;2023-06-10T17:47:46;8.77;;;3.30;;
27722;SDS011;15123;-37.794;175.246;2023-06-10T17:51:10;7.88;;;3.50;;
27722;SDS011;15123;-37.794;175.246;2023-06-10T17:54:33;11.15;;;5.25;;
27722;SDS011;15123;-37.794;175.246;2023-06-10T17:57:56;23.60;;;9.68;;
27722;SDS011;15123;-37.794;175.246;2023-06-10T18:01:19;18.33;;;7.75;;
27722;SDS011;15123;-37.794;175.246;2023-06-10T18:04:43;19.08;;;7.38;;
27722;SDS011;15123;-37.794;175.246;2023-06-10T18:08:06;16.45;;;7.45;;
27722;SDS011;15123;-37.794;175.246;2023-06-10T18:11:29;11.65;;;5.25;;
27722;SDS011;15123;-37.794;175.246;2023-06-10T18:14:53;15.45;;;5.75;;
27722;SDS011;15123;-37.794;175.246;2023-06-10T18:18:17;13.38;;;5.43;;
27722;SDS011;15123;-37.794;175.246;2023-06-10T18:21:41;10.70;;;4.88;;
27722;SDS011;15123;-37.794;175.246;2023-06-10T18:25:05;10.60;;;5.00;;
27722;SDS011;15123;-37.794;175.246;2023-06-10T18:28:29;9.93;;;4.32;;
27722;SDS011;15123;-37.794;175.246;2023-06-10T18:31:53;13.00;;;4.68;;
27722;SDS011;15123;-37.794;175.246;2023-06-10T18:35:16;10.65;;;4.35;;
27722;SDS011;15123;-37.794;175.246;2023-06-10T18:38:40;12.60;;;4.93;;
27722;SDS011;15123;-37.794;175.246;2023-06-10T18:42:03;11.82;;;5.22;;
27722;SDS011;15123;-37.794;175.246;2023-06-10T18:45:26;13.27;;;5.80;;
27722;SDS011;15123;-37.794;175.246;2023-06-10T18:48:50;14.57;;;6.38;;
27722;SDS011;15123;-37.794;175.246;2023-06-10T18:52:15;12.73;;;6.20;;
27722;SDS011;15123;-37.794;175.246;2023-06-10T18:55:39;13.07;;;6.18;;
27722;SDS011;15123;-37.794;175.246;2023-06-10T18:59:02;15.20;;;6.75;;
27722;SDS011;15123;-37.794;175.246;2023-06-10T19:02:25;18.05;;;8.13;;
27722;SDS011;15123;-37.794;175.246;2023-06-10T19:05:49;16.92;;;8.32;;
27722;SDS011;15123;-37.794;175.246;2023-06-10T19:09:14;15.02;;;7.50;;
27722;SDS011;15123;-37.794;175.246;2023-06-10T19:12:38;16.25;;;7.78;;
27722;SDS011;15123;-37.794;175.246;2023-06-10T19:16:01;16.77;;;8.25;;
27722;SDS011;15123;-37.794;175.246;2023-06-10T19:19:25;14.52;;;5.60;;
27722;SDS011;15123;-37.794;175.246;2023-06-10T19:22:49;11.18;;;4.93;;
27722;SDS011;15123;-37.794;175.246;2023-06-10T19:26:13;12.02;;;4.93;;
27722;SDS011;15123;-37.794;175.246;2023-06-10T19:30:02;11.35;;;5.05;;
27722;SDS011;15123;-37.794;175.246;2023-06-10T19:33:20;12.73;;;5.10;;
27722;SDS011;15123;-37.794;175.246;2023-06-10T19:36:44;14.98;;;6.07;;
27722;SDS011;15123;-37.794;175.246;2023-06-10T19:40:08;18.83;;;7.55;;
27722;SDS011;15123;-37.794;175.246;2023-06-10T19:43:31;16.90;;;6.70;;
27722;SDS011;15123;-37.794;175.246;2023-06-10T19:46:57;14.40;;;5.97;;